PWSweather.com
Personal Weather Stations
Station Observations
OFENA
OfenaIT

OfenaIT

Lat: 42.328, Lon: 13.761

Elevation: 500

Station Type: PCE-FW20

High Low Average
Temperature 96.6°F35.9°F 65.8°F18.8°F 80.2°F26.8°F
Dew Point 38.5°F3.6°F 18.5°F-7.5°F 26.6°F-3.0°F
Winds 8.3 mph S13.4 mph S Calm Calm 3.4 mph 5.5 mph
Wind Gusts 13.6 mph21.9 mph -- 7.0 mph11.3 mph
Humidity 17% 11% 14%
Pressure 29.89 in1012.20 in 29.83 in1010.20 in -
Precipitation 0.00 in0.00 in - -
Hour Temp Dew Point Humidity Winds Wind Gusts Pressure Precip Precip Rate Daily Precip Total
12:08 PM 65.8°F18.8°C 19.8°F-6.8°C 17% Calm Calm -- 29.86 in1011.2 mb 0.00 in0.0 mm 0.00 in0.0 mm 0.00 in0.0 mm
12:10 PM 90.0°F32.2°C 28.5°F-1.9°C 11% 4.5 mph SW7.2 kmh SW 9.2 mph14.8 kmh 29.83 in1010.2 mb 0.00 in0.0 mm 0.00 in0.0 mm 0.00 in0.0 mm
12:20 PM 87.3°F30.7°C 30.5°F-0.8°C 13% 1.6 mph SSE2.6 kmh SSE 11.4 mph18.3 kmh 29.84 in1010.5 mb 0.00 in0.0 mm 0.00 in0.0 mm 0.00 in0.0 mm
12:30 PM 86.0°F30.0°C 29.5°F-1.4°C 13% 3.8 mph N6.1 kmh N 6.0 mph9.7 kmh 29.84 in1010.5 mb 0.00 in0.0 mm 0.00 in0.0 mm 0.00 in0.0 mm
04:44 PM 91.8°F33.2°C 37.5°F3.1°C 15% 3.8 mph W6.1 kmh W 5.4 mph8.7 kmh 29.84 in1010.5 mb 0.00 in0.0 mm 0.00 in0.0 mm 0.04 in1.0 mm
04:50 PM 85.1°F29.5°C 30.6°F-0.8°C 14% 1.6 mph SSW2.6 kmh SSW 6.0 mph9.7 kmh 29.86 in1011.2 mb 0.00 in0.0 mm 0.00 in0.0 mm 0.04 in1.0 mm
05:00 PM 83.7°F28.7°C 31.2°F-0.4°C 15% 1.6 mph S2.6 kmh S 4.5 mph7.2 kmh 29.85 in1010.8 mb 0.00 in0.0 mm 0.00 in0.0 mm 0.04 in1.0 mm
05:10 PM 81.1°F27.3°C 23.8°F-4.6°C 12% 0.7 mph ENE1.1 kmh ENE 5.4 mph8.7 kmh 29.86 in1011.2 mb 0.00 in0.0 mm 0.00 in0.0 mm 0.04 in1.0 mm
05:20 PM 79.9°F26.6°C 24.7°F-4.1°C 13% 1.6 mph ENE2.6 kmh ENE 3.8 mph6.1 kmh 29.86 in1011.2 mb 0.00 in0.0 mm 0.00 in0.0 mm 0.04 in1.0 mm
05:30 PM 79.2°F26.2°C 24.1°F-4.4°C 13% 5.4 mph NNW8.7 kmh NNW 7.6 mph12.2 kmh 29.86 in1011.2 mb 0.00 in0.0 mm 0.00 in0.0 mm 0.04 in1.0 mm
05:40 PM 81.0°F27.2°C 23.6°F-4.7°C 12% 5.4 mph WNW8.7 kmh WNW 9.2 mph14.8 kmh 29.86 in1011.2 mb 0.00 in0.0 mm 0.00 in0.0 mm 0.04 in1.0 mm
05:50 PM 82.6°F28.1°C 30.3°F-0.9°C 15% 6.9 mph WNW11.1 kmh WNW 9.8 mph15.8 kmh 29.86 in1011.2 mb 0.00 in0.0 mm 0.00 in0.0 mm 0.04 in1.0 mm
06:00 PM 83.1°F28.4°C 30.7°F-0.7°C 15% 3.8 mph WNW6.1 kmh WNW 8.3 mph13.4 kmh 29.85 in1010.8 mb 0.00 in0.0 mm 0.00 in0.0 mm 0.04 in1.0 mm
06:10 PM 82.9°F28.3°C 30.6°F-0.8°C 15% 3.1 mph NW5.0 kmh NW 7.6 mph12.2 kmh 29.84 in1010.5 mb 0.00 in0.0 mm 0.00 in0.0 mm 0.04 in1.0 mm
06:20 PM 81.5°F27.5°C 22.0°F-5.6°C 11% 3.8 mph W6.1 kmh W 6.9 mph11.1 kmh 29.84 in1010.5 mb 0.00 in0.0 mm 0.00 in0.0 mm 0.04 in1.0 mm
06:30 PM 79.2°F26.2°C 24.1°F-4.4°C 13% 3.8 mph NW6.1 kmh NW 6.9 mph11.1 kmh 29.85 in1010.8 mb 0.00 in0.0 mm 0.00 in0.0 mm 0.04 in1.0 mm
06:40 PM 77.5°F25.3°C 24.6°F-4.1°C 14% 2.2 mph NW3.5 kmh NW 7.6 mph12.2 kmh 29.85 in1010.8 mb 0.00 in0.0 mm 0.00 in0.0 mm 0.04 in1.0 mm
06:50 PM 77.2°F25.1°C 24.3°F-4.3°C 14% 3.8 mph NW6.1 kmh NW 7.6 mph12.2 kmh 29.85 in1010.8 mb 0.00 in0.0 mm 0.00 in0.0 mm 0.04 in1.0 mm
07:00 PM 76.3°F24.6°C 25.3°F-3.7°C 15% 6.0 mph NW9.7 kmh NW 10.7 mph17.2 kmh 29.86 in1011.2 mb 0.00 in0.0 mm 0.00 in0.0 mm 0.04 in1.0 mm
07:10 PM 75.7°F24.3°C 24.9°F-3.9°C 15% 6.9 mph NW11.1 kmh NW 10.7 mph17.2 kmh 29.85 in1010.8 mb 0.00 in0.0 mm 0.00 in0.0 mm 0.04 in1.0 mm
07:20 PM 75.2°F24.0°C 24.4°F-4.2°C 15% 5.4 mph NW8.7 kmh NW 10.7 mph17.2 kmh 29.86 in1011.2 mb 0.00 in0.0 mm 0.00 in0.0 mm 0.04 in1.0 mm
07:30 PM 74.8°F23.8°C 25.7°F-3.5°C 16% 4.5 mph NW7.2 kmh NW 12.1 mph19.5 kmh 29.86 in1011.2 mb 0.00 in0.0 mm 0.00 in0.0 mm 0.04 in1.0 mm
07:40 PM 74.5°F23.6°C 25.4°F-3.7°C 16% 4.5 mph NW7.2 kmh NW 11.4 mph18.3 kmh 29.86 in1011.2 mb 0.00 in0.0 mm 0.00 in0.0 mm 0.04 in1.0 mm
07:50 PM 73.9°F23.3°C 25.0°F-3.9°C 16% 5.4 mph NNW8.7 kmh NNW 9.2 mph14.8 kmh 29.86 in1011.2 mb 0.00 in0.0 mm 0.00 in0.0 mm 0.04 in1.0 mm
08:00 PM 73.8°F23.2°C 24.8°F-4.0°C 16% 4.5 mph NW7.2 kmh NW 9.2 mph14.8 kmh 29.86 in1011.2 mb 0.00 in0.0 mm 0.00 in0.0 mm 0.04 in1.0 mm
08:10 PM 73.2°F22.9°C 19.5°F-6.9°C 13% 2.2 mph NNW3.5 kmh NNW 6.9 mph11.1 kmh 29.86 in1011.2 mb 0.00 in0.0 mm 0.00 in0.0 mm 0.04 in1.0 mm
08:20 PM 73.6°F23.1°C 24.7°F-4.1°C 16% 6.0 mph NW9.7 kmh NW 9.2 mph14.8 kmh 29.87 in1011.5 mb 0.00 in0.0 mm 0.00 in0.0 mm 0.04 in1.0 mm
08:30 PM 73.9°F23.3°C 25.0°F-3.9°C 16% 6.0 mph N9.7 kmh N 13.6 mph21.9 kmh 29.86 in1011.2 mb 0.00 in0.0 mm 0.00 in0.0 mm 0.04 in1.0 mm
08:40 PM 73.4°F23.0°C 24.5°F-4.2°C 16% 3.8 mph NNW6.1 kmh NNW 8.3 mph13.4 kmh 29.87 in1011.5 mb 0.00 in0.0 mm 0.00 in0.0 mm 0.04 in1.0 mm
08:50 PM 73.9°F23.3°C 25.0°F-3.9°C 16% 6.0 mph N9.7 kmh N 10.7 mph17.2 kmh 29.88 in1011.9 mb 0.00 in0.0 mm 0.00 in0.0 mm 0.04 in1.0 mm
09:00 PM 73.9°F23.3°C 25.0°F-3.9°C 16% 2.2 mph N3.5 kmh N 9.8 mph15.8 kmh 29.87 in1011.5 mb 0.00 in0.0 mm 0.00 in0.0 mm 0.04 in1.0 mm
09:10 PM 73.2°F22.9°C 19.5°F-6.9°C 13% 3.1 mph N5.0 kmh N 6.0 mph9.7 kmh 29.87 in1011.5 mb 0.00 in0.0 mm 0.00 in0.0 mm 0.04 in1.0 mm
09:20 PM 74.1°F23.4°C 25.1°F-3.8°C 16% 0.7 mph N1.1 kmh N 10.7 mph17.2 kmh 29.87 in1011.5 mb 0.00 in0.0 mm 0.00 in0.0 mm 0.04 in1.0 mm
09:30 PM 72.3°F22.4°C 18.8°F-7.3°C 13% 2.2 mph NE3.5 kmh NE 3.8 mph6.1 kmh 29.87 in1011.5 mb 0.00 in0.0 mm 0.00 in0.0 mm 0.04 in1.0 mm
09:40 PM 71.1°F21.7°C 19.5°F-6.9°C 14% 2.2 mph NE3.5 kmh NE 6.0 mph9.7 kmh 29.88 in1011.9 mb 0.00 in0.0 mm 0.00 in0.0 mm 0.04 in1.0 mm
09:50 PM 72.0°F22.2°C 18.5°F-7.5°C 13% 0.7 mph NE1.1 kmh NE 5.4 mph8.7 kmh 29.88 in1011.9 mb 0.00 in0.0 mm 0.00 in0.0 mm 0.04 in1.0 mm
10:00 PM 71.4°F21.9°C 19.8°F-6.8°C 14% 2.2 mph NE3.5 kmh NE 3.8 mph6.1 kmh 29.88 in1011.9 mb 0.00 in0.0 mm 0.00 in0.0 mm 0.04 in1.0 mm
10:10 PM 71.4°F21.9°C 19.8°F-6.8°C 14% 2.2 mph NE3.5 kmh NE 6.0 mph9.7 kmh 29.89 in1012.2 mb 0.00 in0.0 mm 0.00 in0.0 mm 0.04 in1.0 mm
10:20 PM 70.5°F21.4°C 19.1°F-7.2°C 14% 3.8 mph N6.1 kmh N 7.6 mph12.2 kmh 29.89 in1012.2 mb 0.00 in0.0 mm 0.00 in0.0 mm 0.04 in1.0 mm